createdAt,value
2022-10-01T00:01:04.876Z,10.60
2022-10-01T00:03:53.069Z,10.70
2022-10-01T00:15:13.389Z,10.90
2022-10-01T00:23:36.984Z,10.90
2022-10-01T00:26:27.859Z,10.90
2022-10-01T00:34:50.453Z,10.70
2022-10-01T00:40:25.095Z,10.70
2022-10-01T00:43:26.959Z,10.70
2022-10-01T00:46:28.162Z,10.70
2022-10-01T00:49:24.670Z,10.50
2022-10-01T00:52:15.965Z,10.60
2022-10-01T00:55:09.370Z,10.50
2022-10-01T01:00:44.821Z,10.50
2022-10-01T01:12:21.367Z,10.50
2022-10-01T01:15:36.770Z,10.50
2022-10-01T01:18:41.099Z,10.60
2022-10-01T01:21:43.190Z,10.70
2022-10-01T01:24:45.771Z,10.70
2022-10-01T01:28:12.193Z,10.60
2022-10-01T01:31:04.640Z,10.70
2022-10-01T01:33:55.559Z,10.60
2022-10-01T01:36:48.958Z,10.70
2022-10-01T01:42:31.246Z,10.80
2022-10-01T01:45:22.606Z,10.90
2022-10-01T01:48:11.395Z,10.80
2022-10-01T01:51:24.025Z,10.80
2022-10-01T02:02:39.287Z,10.90
2022-10-01T02:05:35.116Z,10.90
2022-10-01T02:08:36.870Z,11.00
2022-10-01T02:11:38.038Z,11.00
2022-10-01T02:14:47.391Z,11.00
2022-10-01T02:17:52.388Z,11.00
2022-10-01T02:20:51.025Z,11.00
2022-10-01T02:23:51.979Z,11.00
2022-10-01T02:29:28.692Z,11.10
2022-10-01T02:32:18.105Z,11.00
2022-10-01T02:35:09.553Z,11.00
2022-10-01T02:37:58.631Z,11.00
2022-10-01T02:40:47.317Z,11.00
2022-10-01T02:43:42.770Z,11.10
2022-10-01T02:46:42.214Z,11.10
2022-10-01T02:52:32.434Z,11.00
2022-10-01T02:55:28.569Z,11.00
2022-10-01T03:01:03.686Z,11.20
2022-10-01T03:17:53.556Z,11.20
2022-10-01T03:29:04.345Z,11.20
2022-10-01T03:31:52.091Z,11.20
2022-10-01T03:59:47.284Z,11.30
2022-10-01T04:05:22.082Z,11.30
2022-10-01T04:16:34.835Z,11.10
2022-10-01T04:27:55.376Z,10.70
2022-10-01T04:30:44.525Z,10.70
2022-10-01T04:50:25.086Z,10.50
2022-10-01T05:12:48.602Z,10.30
2022-10-01T05:35:09.639Z,10.30
2022-10-01T05:37:58.786Z,10.40
2022-10-01T05:40:46.185Z,10.40
2022-10-01T05:43:33.301Z,10.40
2022-10-01T06:03:07.947Z,10.40
2022-10-01T06:05:55.621Z,10.40
2022-10-01T06:11:36.704Z,10.40
2022-10-01T06:17:11.457Z,10.40
2022-10-01T06:22:54.340Z,10.40
2022-10-01T06:25:43.474Z,10.50
2022-10-01T06:36:53.444Z,10.50
2022-10-01T06:50:52.311Z,10.50
2022-10-01T07:07:38.310Z,10.60
2022-10-01T07:13:18.372Z,10.70
2022-10-01T07:30:05.199Z,11.00
2022-10-01T08:23:16.916Z,11.40
2022-10-01T08:26:07.414Z,11.40
2022-10-01T08:45:46.437Z,11.70
2022-10-01T08:51:50.187Z,11.70
2022-10-01T08:54:46.388Z,11.70
2022-10-01T08:57:39.921Z,11.70
2022-10-01T09:00:28.829Z,11.80
2022-10-01T09:03:17.647Z,12.00
2022-10-01T09:06:17.915Z,12.20
2022-10-01T09:09:33.045Z,12.40
2022-10-01T09:12:41.492Z,12.40
2022-10-01T09:15:41.113Z,12.60
2022-10-01T09:21:48.241Z,13.10
2022-10-01T09:27:27.479Z,13.20
2022-10-01T09:30:27.089Z,13.30
2022-10-01T09:33:21.416Z,13.50
2022-10-01T09:36:23.331Z,13.50
2022-10-01T09:39:41.645Z,13.60
2022-10-01T09:42:29.943Z,13.10
2022-10-01T09:45:18.668Z,13.00
2022-10-01T09:48:19.589Z,13.30
2022-10-01T09:51:24.834Z,13.20
2022-10-01T09:54:35.323Z,13.30
2022-10-01T09:57:31.460Z,13.20
2022-10-01T10:00:21.216Z,13.20
2022-10-01T10:05:59.779Z,13.30
2022-10-01T10:11:34.725Z,13.40
2022-10-01T10:14:30.560Z,13.10
2022-10-01T10:17:17.753Z,13.20
2022-10-01T10:20:18.930Z,13.30
2022-10-01T10:23:23.286Z,13.30
2022-10-01T10:26:19.463Z,13.60
2022-10-01T10:29:24.145Z,13.80
2022-10-01T10:32:27.527Z,13.90
2022-10-01T10:35:20.417Z,13.90
2022-10-01T10:38:18.346Z,14.00
2022-10-01T10:44:01.381Z,14.20
2022-10-01T10:46:50.325Z,14.20
2022-10-01T10:49:59.325Z,14.30
2022-10-01T10:58:25.366Z,17.30
2022-10-01T11:01:17.811Z,15.10
2022-10-01T11:04:23.830Z,15.30
2022-10-01T11:07:13.413Z,15.60
2022-10-01T11:10:24.535Z,15.60
2022-10-01T11:13:22.275Z,15.50
2022-10-01T11:16:26.514Z,15.40
2022-10-01T11:19:47.738Z,15.40
2022-10-01T11:22:53.055Z,15.20
2022-10-01T11:26:12.744Z,14.90
2022-10-01T11:29:05.661Z,14.90
2022-10-01T11:34:52.719Z,14.90
2022-10-01T11:38:13.732Z,14.90
2022-10-01T11:41:21.814Z,15.10
2022-10-01T11:44:30.019Z,15.00
2022-10-01T11:47:26.478Z,15.00
2022-10-01T11:50:20.574Z,15.20
2022-10-01T11:53:24.877Z,15.20
2022-10-01T11:56:49.114Z,15.20
2022-10-01T12:00:09.475Z,15.30
2022-10-01T12:03:05.125Z,15.30
2022-10-01T12:08:45.475Z,15.50
2022-10-01T12:11:42.324Z,15.80
2022-10-01T12:14:38.032Z,15.90
2022-10-01T12:17:33.658Z,16.10
2022-10-01T12:20:34.295Z,16.20
2022-10-01T12:23:49.172Z,16.10
2022-10-01T12:26:53.644Z,16.50
2022-10-01T12:30:15.288Z,13.90
2022-10-01T12:33:27.717Z,16.40
2022-10-01T12:36:38.422Z,16.30
2022-10-01T12:39:46.877Z,16.20
2022-10-01T12:43:25.027Z,16.20
2022-10-01T12:46:37.822Z,16.30
2022-10-01T12:49:36.963Z,16.30
2022-10-01T12:52:33.771Z,16.30
2022-10-01T12:55:40.413Z,16.30
2022-10-01T12:58:30.269Z,16.50
2022-10-01T13:01:25.901Z,16.50
2022-10-01T13:04:40.347Z,16.60
2022-10-01T13:10:51.341Z,16.90
2022-10-01T13:16:44.500Z,17.10
2022-10-01T13:20:00.804Z,17.00
2022-10-01T13:25:50.372Z,16.80
2022-10-01T13:29:11.652Z,16.60
2022-10-01T13:32:01.153Z,16.40
2022-10-01T13:37:39.823Z,16.50
2022-10-01T13:40:32.683Z,16.60
2022-10-01T13:43:24.114Z,16.70
2022-10-01T13:49:28.729Z,16.90
2022-10-01T13:52:20.358Z,17.00
2022-10-01T13:58:28.892Z,17.30
2022-10-01T14:04:19.251Z,16.80
2022-10-01T14:07:24.184Z,16.60
2022-10-01T14:10:14.814Z,16.40
2022-10-01T14:13:22.071Z,16.20
2022-10-01T14:21:47.419Z,11.80
2022-10-01T14:24:54.084Z,11.50
2022-10-01T14:27:59.441Z,11.40
2022-10-01T14:33:50.833Z,11.30
2022-10-01T14:36:47.288Z,11.40
2022-10-01T14:39:34.762Z,11.50
2022-10-01T14:45:17.532Z,11.60
2022-10-01T14:48:07.032Z,11.50
2022-10-01T14:50:56.179Z,11.50
2022-10-01T14:59:37.283Z,11.60
2022-10-01T15:02:26.096Z,11.90
2022-10-01T15:05:22.129Z,12.20
2022-10-01T15:08:43.219Z,12.30
2022-10-01T15:11:31.727Z,12.40
2022-10-01T15:14:23.868Z,12.20
2022-10-01T15:17:24.769Z,12.00
2022-10-01T15:20:12.957Z,12.00
2022-10-01T15:31:24.908Z,12.00
2022-10-01T15:34:15.356Z,12.00
2022-10-01T15:37:03.518Z,12.00
2022-10-01T15:39:51.744Z,11.90
2022-10-01T15:48:29.949Z,12.00
2022-10-01T15:51:19.772Z,12.10
2022-10-01T15:54:08.936Z,12.30
2022-10-01T16:02:32.174Z,12.30
2022-10-01T16:05:23.509Z,12.20
2022-10-01T16:08:21.742Z,10.80
2022-10-01T16:14:33.680Z,12.20
2022-10-01T16:17:22.554Z,12.10
2022-10-01T16:20:15.589Z,12.30
2022-10-01T16:23:36.731Z,12.30
2022-10-01T16:26:36.029Z,12.30
2022-10-01T16:29:25.031Z,12.30
2022-10-01T16:32:14.748Z,11.00
2022-10-01T16:35:24.794Z,12.20
2022-10-01T16:49:24.750Z,11.90
2022-10-01T16:52:13.652Z,11.90
2022-10-01T16:57:49.759Z,11.90
2022-10-01T17:00:37.769Z,11.80
2022-10-01T17:20:12.761Z,11.90
2022-10-01T17:34:11.305Z,12.00
2022-10-01T17:51:00.875Z,12.90
2022-10-01T18:02:36.451Z,11.50
2022-10-01T18:11:03.335Z,11.60
2022-10-01T18:13:51.464Z,11.60
2022-10-01T18:16:38.967Z,11.70
2022-10-01T18:22:37.878Z,11.80
2022-10-01T18:31:12.307Z,12.00
2022-10-01T18:34:02.869Z,12.00
2022-10-01T18:37:03.126Z,11.90
2022-10-01T18:40:00.066Z,11.80
2022-10-01T18:45:47.605Z,11.70
2022-10-01T18:48:53.102Z,11.50
2022-10-01T18:51:55.890Z,11.40
2022-10-01T18:55:21.489Z,11.50
2022-10-01T18:58:34.193Z,11.50
2022-10-01T19:04:17.906Z,11.40
2022-10-01T19:07:49.772Z,11.40
2022-10-01T19:10:45.519Z,11.30
2022-10-01T19:13:55.180Z,11.20
2022-10-01T19:17:19.413Z,11.40
2022-10-01T19:20:18.867Z,11.50
2022-10-01T19:26:08.239Z,11.40
2022-10-01T19:29:06.794Z,11.30
2022-10-01T19:32:03.756Z,11.30
2022-10-01T19:35:12.080Z,11.30
2022-10-01T19:38:18.441Z,11.30
2022-10-01T19:41:15.925Z,11.20
2022-10-01T19:44:11.591Z,11.20
2022-10-01T19:47:14.252Z,11.30
2022-10-01T19:50:12.456Z,11.10
2022-10-01T19:53:03.157Z,11.10
2022-10-01T19:55:52.504Z,11.00
2022-10-01T20:01:39.078Z,11.30
2022-10-01T20:04:48.329Z,11.40
2022-10-01T20:08:00.594Z,11.30
2022-10-01T20:10:56.972Z,11.30
2022-10-01T20:14:38.508Z,11.20
2022-10-01T20:17:39.997Z,11.10
2022-10-01T20:20:41.598Z,11.10
2022-10-01T20:29:18.001Z,11.00
2022-10-01T20:32:26.796Z,10.90
2022-10-01T20:35:24.257Z,11.00
2022-10-01T20:38:36.519Z,11.10
2022-10-01T20:41:27.102Z,11.30
2022-10-01T20:44:28.147Z,11.40
2022-10-01T20:47:24.980Z,11.40
2022-10-01T20:50:26.496Z,11.40
2022-10-01T20:53:25.539Z,11.40
2022-10-01T20:56:17.284Z,11.40
2022-10-01T20:59:19.299Z,11.30
2022-10-01T21:02:32.427Z,11.20
2022-10-01T21:05:28.531Z,11.10
2022-10-01T21:11:19.331Z,10.90
2022-10-01T21:14:26.437Z,10.90
2022-10-01T21:17:36.584Z,10.90
2022-10-01T21:23:33.489Z,8.60
2022-10-01T21:26:47.493Z,10.90
2022-10-01T21:32:35.394Z,11.00
2022-10-01T21:35:30.953Z,11.00
2022-10-01T21:41:30.054Z,10.90
2022-10-01T21:44:26.277Z,10.80
2022-10-01T21:50:35.264Z,10.70
2022-10-01T21:53:44.391Z,10.50
2022-10-01T21:59:54.499Z,11.00
2022-10-01T22:02:58.415Z,11.10
2022-10-01T22:06:07.174Z,11.10
2022-10-01T22:09:08.835Z,11.00
2022-10-01T22:12:00.011Z,10.90
2022-10-01T22:14:51.378Z,11.00
2022-10-01T22:20:34.470Z,11.20
2022-10-01T22:26:16.781Z,11.00
2022-10-01T22:29:10.016Z,10.90
2022-10-01T22:32:02.995Z,8.60
2022-10-01T22:35:00.977Z,10.90
2022-10-01T22:38:05.083Z,11.10
2022-10-01T22:40:59.625Z,11.20
2022-10-01T22:49:49.926Z,11.00
2022-10-01T22:52:58.739Z,11.10
2022-10-01T22:55:57.081Z,11.10
2022-10-01T22:59:02.861Z,11.00
2022-10-01T23:02:11.951Z,10.90
2022-10-01T23:08:20.711Z,11.20
2022-10-01T23:11:35.036Z,11.10
2022-10-01T23:14:48.099Z,10.90
2022-10-01T23:18:17.808Z,10.80
2022-10-01T23:21:32.728Z,10.70
2022-10-01T23:24:48.314Z,10.90
2022-10-01T23:28:03.304Z,10.90
2022-10-01T23:31:12.416Z,10.80
2022-10-01T23:34:31.817Z,10.70
2022-10-01T23:37:38.808Z,10.50
2022-10-01T23:40:32.954Z,10.40
2022-10-01T23:52:15.267Z,10.30
2022-10-01T23:55:24.588Z,10.70
2022-10-01T23:58:15.581Z,10.90
